This is the latest recevied weather packets stored in our database for station/object SP1BMW-13. If no packets are shown the sender has not sent any weather packets the latest 10 day(s).
| Time | Temp. | Humidity | Pressure | Rain* | Wind** | Luminosity | Snow |
|---|---|---|---|---|---|---|---|
| 1778233500 | 12.22° C | 58% | 1020.1 hPa | 0 mm | 0.45 m/s, 51° | 298 W/m² | - |
| 1778233440 | 12.22° C | 57% | 1020.2 hPa | 0 mm | 0.89 m/s, 50° | 295 W/m² | - |
| 1778233379 | 12.22° C | 57% | 1020 hPa | 0 mm | 0.89 m/s, 47° | 290 W/m² | - |
| 1778233319 | 12.22° C | 57% | 1020.3 hPa | 0 mm | 1.79 m/s, 71° | 287 W/m² | - |
| 1778233259 | 12.22° C | 56% | 1020 hPa | 0 mm | 0.89 m/s, 40° | 284 W/m² | - |
| 1778233200 | 12.22° C | 55% | 1020.3 hPa | 0 mm | 1.34 m/s, 59° | 281 W/m² | - |
| 1778233140 | 12.22° C | 56% | 1020.3 hPa | 0 mm | 0.89 m/s, 100° | 280 W/m² | - |
| 1778233080 | 12.22° C | 58% | 1020.2 hPa | 0 mm | 1.34 m/s, 35° | 278 W/m² | - |
| 1778233019 | 12.22° C | 56% | 1020.1 hPa | 0 mm | 0.45 m/s, 56° | 274 W/m² | - |
| 1778232960 | 12.22° C | 56% | 1020.3 hPa | 0 mm | 0.89 m/s, 343° | 271 W/m² | - |
| 1778232899 | 12.22° C | 57% | 1020.2 hPa | 0 mm | 0.89 m/s, 333° | 269 W/m² | - |
| 1778232839 | 12.22° C | 57% | 1020.3 hPa | 0 mm | 0.45 m/s, 28° | 266 W/m² | - |
| 1778232780 | 12.22° C | 56% | 1020.1 hPa | 0 mm | 0.45 m/s, 117° | 263 W/m² | - |
| 1778232719 | 12.22° C | 57% | 1020.2 hPa | 0 mm | 0 m/s | 263 W/m² | - |
| 1778232660 | 12.22° C | 55% | 1020.3 hPa | 0 mm | 1.34 m/s, 62° | 266 W/m² | - |
| 1778232599 | 12.22° C | 55% | 1020.2 hPa | 0 mm | 1.34 m/s, 37° | 269 W/m² | - |
| 1778232540 | 12.22° C | 55% | 1020.1 hPa | 0 mm | 0.89 m/s, 31° | 275 W/m² | - |
| 1778232480 | 12.22° C | 55% | 1020.1 hPa | 0 mm | 0.45 m/s, 29° | 281 W/m² | - |
| 1778232419 | 12.22° C | 55% | 1020.3 hPa | 0 mm | 0.45 m/s, 44° | 287 W/m² | - |
| 1778232360 | 12.22° C | 54% | 1020.3 hPa | 0 mm | 1.34 m/s, 39° | 290 W/m² | - |
| 1778232300 | 12.78° C | 53% | 1020.2 hPa | 0 mm | 0.45 m/s, 41° | 294 W/m² | - |
| 1778232240 | 12.78° C | 55% | 1020.3 hPa | 0 mm | 0.89 m/s, 113° | 301 W/m² | - |
| 1778232180 | 12.78° C | 53% | 1020.4 hPa | 0 mm | 1.34 m/s, 41° | 307 W/m² | - |
| 1778232120 | 12.78° C | 54% | 1020.2 hPa | 0 mm | 0.45 m/s, 29° | 314 W/m² | - |
| 1778232060 | 12.78° C | 55% | 1020.3 hPa | 0 mm | 0.45 m/s, 15° | 322 W/m² | - |
* Rain latest hour (hover to see other rain measurements)
** Current wind speed in m/s (hover to see current wind gust speed)